x

Buoy F01 - West Penobscot Bay (44033) Wave Buoy

12:04 - Fri 27th Feb 2015 All times are EST. -5 hours from GMT.

  • Sig Wave height 2.0ft
  • Peak Period 3s
  • Wind
    18mph, 20mph gusts
  • Sea Temp 32°f
  • Luft Temp 15°f
  • Sea Pressure 1018.7mb
  • Buoy F01 - West Penobscot Bay
  • Buoy F01 - West Penobscot Bay

More Historic Weather Station data

Upgrade to MSW Pro to gain access to the past 30 days of data for over 8000 Wavebouys and Weather Stations around the globe.

Join Pro

Comparision Forecast

View Surf forecast
   
Fr 02/27 12:04 2ft 3s 18 20 mph 1018.7mb 32f 15f
Do 02/26 11:04 2.5ft 3s 18 20 mph 1018.3mb 31f 16f
10:04 1.6ft 3s 16 20 mph 1017.6mb 31f 16f
9:04 1.3ft 2s 16 20 mph 1016.8mb 31f 16f
8:04 1.6ft 11s  -  mph - 32f -
7:04 1.3ft 11s 13 18 mph 1015.9mb 32f 16f
6:04 1.3ft 11s 11 16 mph 1015.7mb 32f 15f
5:04 1.6ft 8s 13 16 mph 1015.1mb 32f 15f
4:04 1.3ft 11s 13 16 mph 1015mb 32f 15f
3:04 1.3ft 11s 13 16 mph 1015.1mb 32f 15f
2:04 1.3ft 8s 9 13 mph 1015.8mb 32f 14f
1:04 1.6ft 11s 13 16 mph 1016.5mb 32f 13f
12:04 1.3ft 3s 13 18 mph 1017.5mb 32f 12f
11:04 2ft 3s 13 16 mph 1018.6mb 32f 12f
10:04 2ft 3s 16 18 mph 1018.9mb 32f 12f
9:04 2ft 3s 11 16 mph 1019.3mb 32f 11f
8:04 2.5ft 3s 16 20 mph 1018.6mb 32f 12f
7:04 2.5ft 11s 18 22 mph 1017.6mb 32f 14f
6:04 2.5ft 11s 16 20 mph 1017.3mb 32f 14f
5:04 2ft 3s 18 22 mph 1016.4mb 32f 15f
4:04 2ft 8s 16 22 mph 1015.8mb 32f 17f
3:04 2.5ft 11s 18 25 mph 1015.1mb 32f 17f
2:04 2ft 3s 18 25 mph 1014.3mb 32f 19f
1:04 2.5ft 8s 20 27 mph 1013.4mb 32f 20f
12:04 2.5ft 11s 18 22 mph 1012.7mb 32f 21f
Mi 02/25 11:04 1.6ft 11s 20 25 mph 1012mb 32f 22f
10:04 1.6ft 6s 16 25 mph 1011.1mb 32f 23f
9:04 1ft 8s 13 16 mph 1009.8mb 32f 24f
8:04 1ft 11s 13 18 mph 1008mb 32f 24f
7:04 1.3ft 6s 9 11 mph 1007.2mb 32f 25f
6:04 1.3ft 6s 9 11 mph 1006mb 32f 26f
5:04 1.3ft 6s 9 13 mph 1004.7mb 32f 27f
4:04 1.6ft 6s 11 13 mph 1003.4mb 33f 27f
3:04 2ft 6s 11 16 mph 1002.6mb 33f 26f
2:04 2.5ft 6s 18 22 mph 1001.7mb 33f 24f
1:04 2ft 6s 11 13 mph 1001.5mb 32f 26f
12:04 2.5ft 6s 11 13 mph 1001.5mb 32f 26f
11:04 2.5ft 6s 11 13 mph 1002.1mb 32f 24f
10:04 2.5ft 6s 13 16 mph 1002.5mb 32f 23f
9:04 3ft 6s 18 22 mph 1003mb 32f 23f
8:04 3ft 6s 18 20 mph 1003.5mb 32f 24f
7:04 3ft 6s 16 20 mph - 32f 26f
6:04 3ft 6s 11
mph
- 32f 27f
5:04 3.5ft 6s  -  2 mph - 32f 27f
4:04 3.5ft 6s 7 9 mph - 32f 27f
3:04 4.5ft 8s 11 16 mph - 32f 26f
2:04 3.5ft 6s 18 20 mph - 32f 26f
1:04 4.5ft 6s 20 25 mph - 32f 25f
12:04 4.5ft 6s 22 27 mph - 32f 25f
Di 02/24 11:04 5ft 6s 25 31 mph - 32f 24f
10:04 5ft 5s 25 31 mph - 32f 24f
9:04 4.5ft 5s 27 31 mph - 32f 24f
8:04 4ft 5s 22 27 mph - 32f 22f
7:04 3.5ft 5s 22 29 mph - 32f 21f
6:04 2.5ft 5s 20 25 mph - 32f 19f
5:04 2.5ft 4s 20 22 mph - 32f 19f
4:04 1.3ft 3s 20 22 mph - 33f 17f
3:04 1ft 2s 11 16 mph - 33f 14f
1:04 1ft  -  13 16 mph - 33f 9f
12:04 0.7ft  -  4 11 mph - 33f 6f
11:04 0.7ft  -  11 16 mph - 32f 4f
10:04 0.7ft  -  9 13 mph - 32f 2f
9:04 0.7ft  -  9 13 mph - 32f 3f
8:04 0.7ft  -  9 16 mph - 32f 2f
7:04 1ft 2s 16 20 mph - 32f -
6:04 1ft 2s 16 20 mph - 32f -2f
5:04 1ft 11s 11 16 mph - 32f -3f
4:04 1ft  -   -  mph - 32f -
3:04 1.3ft 2s  -  mph - 32f -
2:04 1.3ft 3s  -  mph - 32f -
12:04  -   -  18 25 mph - 32f -2f
Mo 02/23 11:04 1.6ft 3s 16 22 mph - 32f -1f
10:04 2ft 4s 18 25 mph - 32f -
9:04 2.5ft 3s 22 29 mph - 32f 2f
8:04 2.5ft 3s 25 29 mph - 32f 4f
7:04 2ft 3s 22 27 mph - 32f 6f
6:04 2ft 3s 25 29 mph - 32f 9f
5:04 2.5ft 3s 22 29 mph - 32f 11f
4:04 3ft 3s 25 31 mph - 33f 12f
3:04 2.5ft 4s 22 27 mph - 33f 13f
2:04 3.5ft 4s 25 34 mph - 33f 15f
1:04 3ft 4s 27 34 mph - 33f 16f
12:04 2.5ft 4s 25 31 mph - 33f 16f
11:04 3ft 4s 22 29 mph - 32f 17f
10:04 3.5ft 4s 25 34 mph - 32f 17f
9:04 3.5ft 8s 22 29 mph - 32f 22f
8:04 2.5ft 11s 22 27 mph - 32f 26f